Uacc Marah — V7TP3 — position and weather

sailwx.info

Track history (hours):
 
Tides and Currents Weather Stations Pressure Air Temp Water Temp Dewpoint Dewpoint Depression Visibility Wind Speed Wind Dir Waves Ship Positions

Uacc Marah

Last reported at 2018-May-11 19:10 UTC. Time now 2018-Jun-25 08:21 UTC.
Position S 27°16' E 035°00'.
Warning: this ship's position is 44 days out of date.

Length 183 m; draft 8.6 m.

Type: Tanker. MMSI: 538003851.

Date/timePositionNaut miles runAvg speedWind from/ knotsBaromVisibWave heightAir tempDewpointWater temp
2018-May-11 19:10S 27°16' E 035°00'212.5
2018-May-11 19:00S 27°18' E 034°59'712.6
2018-May-11 18:29S 27°24' E 034°56'712.9
2018-May-11 17:56S 27°30' E 034°53'612.9
2018-May-11 17:30S 27°35' E 034°50'712.8
2018-May-11 16:58S 27°42' E 034°47'3712.0
2018-May-11 13:54S 28°14' E 034°28'512.3
2018-May-11 13:30S 28°19' E 034°25'612.4
2018-May-11 12:59S 28°25' E 034°22'14910.9
2018-May-10 23:13S 29°41' E 031°55'312.0
2018-May-10 23:00S 29°42' E 031°52'612.4
2018-May-10 22:30S 29°43' E 031°45'713.0
2018-May-10 22:00S 29°44' E 031°38'613.0
2018-May-10 21:30S 29°45' E 031°31'612.4
2018-May-10 21:00S 29°47' E 031°24'712.2
2018-May-10 20:27S 29°48' E 031°16'612.5
2018-May-10 20:00S 29°50' E 031°10'511.1
2018-May-10 19:30S 29°52' E 031°04'  
2018-May-07 19:59S 29°53' E 031°02'1 3.2
2018-May-07 19:30S 29°52' E 031°03'5 9.3
2018-May-07 19:00S 29°50' E 031°08'2 4.8
2018-May-07 18:30S 29°49' E 031°10'4 7.5
2018-May-07 18:00S 29°48' E 031°15'4 8.3
2018-May-07 17:30S 29°47' E 031°19'2 4.6
2018-May-07 17:00S 29°47' E 031°22'611.9
2018-May-07 16:30S 29°46' E 031°29'713.8
2018-May-07 16:01S 29°44' E 031°36'713.6
2018-May-07 15:30S 29°43' E 031°44'713.4
2018-May-07 15:00S 29°41' E 031°51'612.8
2018-May-07 14:30S 29°40' E 031°59'612.8
2018-May-07 14:00S 29°39' E 032°06'612.8
2018-May-07 13:30S 29°37' E 032°13'612.7
2018-May-07 13:00S 29°36' E 032°20'713.2
2018-May-07 12:30S 29°35' E 032°28'713.3
2018-May-07 12:00S 29°33' E 032°35'713.2
2018-May-07 11:30S 29°32' E 032°43'713.4
2018-May-07 11:00S 29°31' E 032°50'713.5
2018-May-07 10:30S 29°29' E 032°58'713.6
2018-May-07 10:00S 29°28' E 033°05'713.5
2018-May-07 09:30S 29°27' E 033°13'714.0
2018-May-07 09:00S 29°25' E 033°21'714.1
2018-May-07 08:30S 29°24' E 033°29'714.1
2018-May-07 08:00S 29°22' E 033°36'714.0
2018-May-07 07:28S 29°20' E 033°45'714.1
2018-May-07 07:00S 29°19' E 033°52'1014.0
2018-May-07 06:19S 29°17' E 034°03'414.2
2018-May-07 06:00S 29°16' E 034°08'714.1
2018-May-07 05:30S 29°14' E 034°16'1013.9
2018-May-07 04:46S 29°12' E 034°27'413.7
2018-May-07 04:29S 29°11' E 034°31'1113.6
2018-May-07 03:40S 29°08' E 034°44'213.7
2018-May-07 03:30S 29°08' E 034°46'713.9
2018-May-07 03:00S 29°06' E 034°54'1113.8
2018-May-07 02:13S 29°05' E 035°06'713.7
2018-May-07 01:42S 29°03' E 035°14'  
Track history (hours):
 
Tides and Currents Weather Stations Pressure Air Temp Water Temp Dewpoint Dewpoint Depression Visibility Wind Speed Wind Dir Waves Ship Positions

Uacc Marah

Last reported at 2018-May-11 19:10 UTC. Time now 2018-Jun-25 08:21 UTC.
Position S 27°16' E 035°00'.
Warning: this ship's position is 44 days out of date.

Length 183 m; draft 8.6 m.

Type: Tanker. MMSI: 538003851.

Date/timePositionNaut miles runAvg speedWind from/ knotsBaromVisibWave heightAir tempDewpointWater temp
2018-May-11 19:10S 27°16' E 035°00'212.5
2018-May-11 19:00S 27°18' E 034°59'712.6
2018-May-11 18:29S 27°24' E 034°56'712.9
2018-May-11 17:56S 27°30' E 034°53'612.9
2018-May-11 17:30S 27°35' E 034°50'712.8
2018-May-11 16:58S 27°42' E 034°47'3712.0
2018-May-11 13:54S 28°14' E 034°28'512.3
2018-May-11 13:30S 28°19' E 034°25'612.4
2018-May-11 12:59S 28°25' E 034°22'14910.9
2018-May-10 23:13S 29°41' E 031°55'312.0
2018-May-10 23:00S 29°42' E 031°52'612.4
2018-May-10 22:30S 29°43' E 031°45'713.0
2018-May-10 22:00S 29°44' E 031°38'613.0
2018-May-10 21:30S 29°45' E 031°31'612.4
2018-May-10 21:00S 29°47' E 031°24'712.2
2018-May-10 20:27S 29°48' E 031°16'612.5
2018-May-10 20:00S 29°50' E 031°10'511.1
2018-May-10 19:30S 29°52' E 031°04'  
2018-May-07 19:59S 29°53' E 031°02'1 3.2
2018-May-07 19:30S 29°52' E 031°03'5 9.3
2018-May-07 19:00S 29°50' E 031°08'2 4.8
2018-May-07 18:30S 29°49' E 031°10'4 7.5
2018-May-07 18:00S 29°48' E 031°15'4 8.3
2018-May-07 17:30S 29°47' E 031°19'2 4.6
2018-May-07 17:00S 29°47' E 031°22'611.9
2018-May-07 16:30S 29°46' E 031°29'713.8
2018-May-07 16:01S 29°44' E 031°36'713.6
2018-May-07 15:30S 29°43' E 031°44'713.4
2018-May-07 15:00S 29°41' E 031°51'612.8
2018-May-07 14:30S 29°40' E 031°59'612.8
2018-May-07 14:00S 29°39' E 032°06'612.8
2018-May-07 13:30S 29°37' E 032°13'612.7
2018-May-07 13:00S 29°36' E 032°20'713.2
2018-May-07 12:30S 29°35' E 032°28'713.3
2018-May-07 12:00S 29°33' E 032°35'713.2
2018-May-07 11:30S 29°32' E 032°43'713.4
2018-May-07 11:00S 29°31' E 032°50'713.5
2018-May-07 10:30S 29°29' E 032°58'713.6
2018-May-07 10:00S 29°28' E 033°05'713.5
2018-May-07 09:30S 29°27' E 033°13'714.0
2018-May-07 09:00S 29°25' E 033°21'714.1
2018-May-07 08:30S 29°24' E 033°29'714.1
2018-May-07 08:00S 29°22' E 033°36'714.0
2018-May-07 07:28S 29°20' E 033°45'714.1
2018-May-07 07:00S 29°19' E 033°52'1014.0
2018-May-07 06:19S 29°17' E 034°03'414.2
2018-May-07 06:00S 29°16' E 034°08'714.1
2018-May-07 05:30S 29°14' E 034°16'1013.9
2018-May-07 04:46S 29°12' E 034°27'413.7
2018-May-07 04:29S 29°11' E 034°31'1113.6
2018-May-07 03:40S 29°08' E 034°44'213.7
2018-May-07 03:30S 29°08' E 034°46'713.9
2018-May-07 03:00S 29°06' E 034°54'1113.8
2018-May-07 02:13S 29°05' E 035°06'713.7
2018-May-07 01:42S 29°03' E 035°14'  

Dump ship's entire track history